Time;durP1;ratioP1;P1;durP2;ratioP2;P2;SDS_P1;SDS_P2;PMS_P1;PMS_P2;Temp;Humidity;BMP_temperature;BMP_pressure;BME280_temperature;BME280_humidity;BME280_pressure;Samples;Min_cycle;Max_cycle;Signal;HPM_P1;HPM_P2
2022/09/20 01:30:10;;;;;;;4.55;0.40;;;11.60;99.90;;;;;;6193183;22;20020;-81
2022/09/20 01:33:28;;;;;;;3.38;0.50;;;11.60;99.90;;;;;;6168159;23;20008;-81
2022/09/20 01:36:30;;;;;;;4.60;0.43;;;11.60;99.90;;;;;;6143542;23;20009;-81
2022/09/20 01:39:29;;;;;;;3.50;0.25;;;11.60;99.90;;;;;;6206342;23;20471;-80
2022/09/20 01:42:47;;;;;;;4.32;0.30;;;11.70;99.90;;;;;;6168832;23;20012;-80
2022/09/20 01:45:56;;;;;;;2.90;0.38;;;11.70;99.90;;;;;;6198742;23;20016;-81
2022/09/20 01:49:26;;;;;;;4.18;0.43;;;11.70;99.90;;;;;;6175951;23;20005;-80
2022/09/20 01:52:10;;;;;;;1.73;0.28;;;11.60;99.90;;;;;;6168506;23;20017;-81
2022/09/20 01:55:28;;;;;;;4.03;0.40;;;11.60;99.90;;;;;;6169156;23;20459;-80
2022/09/20 01:58:28;;;;;;;3.72;0.43;;;11.60;99.90;;;;;;6182035;23;20001;-81
2022/09/20 02:01:41;;;;;;;4.60;0.43;;;11.60;99.90;;;;;;6162259;23;20009;-79
2022/09/20 02:05:00;;;;;;;3.60;0.50;;;11.60;99.90;;;;;;6146020;23;20009;-81
2022/09/20 02:08:02;;;;;;;3.30;0.38;;;11.60;99.90;;;;;;6167607;23;20016;-81
2022/09/20 02:11:05;;;;;;;2.85;0.40;;;11.50;99.90;;;;;;6148347;23;20009;-81
2022/09/20 02:14:09;;;;;;;4.20;0.22;;;11.50;99.90;;;;;;6147286;23;20001;-80
2022/09/20 02:17:09;;;;;;;6.88;0.57;;;11.50;99.90;;;;;;6206755;23;19997;-81
2022/09/20 02:20:17;;;;;;;3.38;0.30;;;11.50;99.90;;;;;;6146774;22;20000;-80
2022/09/20 02:23:37;;;;;;;4.07;0.60;;;11.50;99.90;;;;;;6125226;23;20461;-81
2022/09/20 02:27:17;;;;;;;5.50;0.60;;;11.50;99.90;;;;;;6107018;23;20005;-81
2022/09/20 02:30:31;;;;;;;3.13;0.68;;;11.60;99.90;;;;;;6018420;23;20028;-81
2022/09/20 02:34:20;;;;;;;6.88;0.60;;;11.60;99.90;;;;;;6032956;23;20015;-79
2022/09/20 02:37:15;;;;;;;3.85;0.40;;;11.60;99.90;;;;;;6121689;23;20441;-81
2022/09/20 02:40:52;;;;;;;3.33;0.40;;;11.60;99.90;;;;;;6122798;23;20009;-80
2022/09/20 02:47:33;;;;;;;1.17;0.20;;;11.70;99.90;;;;;;6139520;23;20005;-81
2022/09/20 02:50:33;;;;;;;2.05;0.47;;;11.70;99.90;;;;;;6117154;23;20007;-79
2022/09/20 02:53:21;;;;;;;2.70;0.30;;;11.70;99.90;;;;;;6115384;23;20021;-81
2022/09/20 02:56:13;;;;;;;4.30;0.50;;;11.80;99.90;;;;;;6114714;23;20009;-81
2022/09/20 02:59:15;;;;;;;4.97;0.55;;;11.80;99.90;;;;;;6114102;23;20340;-81
2022/09/20 03:02:23;;;;;;;4.95;0.40;;;11.80;99.90;;;;;;6158793;23;20344;-81
2022/09/20 03:05:26;;;;;;;5.53;0.68;;;11.80;99.90;;;;;;6174228;23;20001;-81
2022/09/20 03:08:19;;;;;;;3.33;0.30;;;11.80;99.90;;;;;;6200760;23;20376;-81
2022/09/20 03:11:21;;;;;;;4.13;0.30;;;11.80;99.90;;;;;;6114145;23;20025;-81
2022/09/20 03:14:23;;;;;;;4.88;0.50;;;11.80;99.90;;;;;;6117988;23;20012;-82
2022/09/20 03:17:41;;;;;;;2.63;0.30;;;11.80;99.90;;;;;;6116101;23;19997;-81
2022/09/20 03:20:52;;;;;;;3.15;0.43;;;11.80;99.90;;;;;;6120032;23;20004;-81
2022/09/20 03:24:06;;;;;;;4.53;0.40;;;11.80;99.90;;;;;;6164211;23;20012;-80
2022/09/20 03:27:22;;;;;;;4.20;0.60;;;11.70;99.90;;;;;;6155037;23;20001;-81
2022/09/20 03:29:51;;;;;;;5.70;0.70;;;11.70;99.90;;;;;;6141989;23;20005;-82
2022/09/20 03:32:55;;;;;;;3.53;0.30;;;11.60;99.90;;;;;;6143904;23;20013;-83
2022/09/20 03:36:24;;;;;;;;;;;;;;;;;;;;;
2022/09/20 03:39:47;;;;;;;4.18;0.30;;;11.40;99.90;;;;;;6166794;23;20015;-81
2022/09/20 03:42:38;;;;;;;5.70;0.50;;;11.40;99.90;;;;;;6142005;23;20013;-81
2022/09/20 03:45:53;;;;;;;2.25;0.40;;;11.40;99.90;;;;;;6117319;23;20322;-79
2022/09/20 03:48:28;;;;;;;3.80;0.30;;;11.40;99.90;;;;;;6139960;23;20012;-81
2022/09/20 03:51:38;;;;;;;7.43;0.80;;;11.40;99.90;;;;;;6140319;23;20008;-81
2022/09/20 03:54:40;;;;;;;2.55;0.25;;;11.50;99.90;;;;;;6060210;23;20011;-80
2022/09/20 03:57:44;;;;;;;2.35;0.28;;;11.50;99.90;;;;;;6139399;23;20004;-81
2022/09/20 04:01:14;;;;;;;3.38;0.30;;;11.50;99.90;;;;;;6129522;23;20016;-81
2022/09/20 04:04:23;;;;;;;2.63;0.30;;;11.60;99.90;;;;;;6141171;23;20005;-81
2022/09/20 04:07:09;;;;;;;2.63;0.30;;;11.50;99.90;;;;;;6165197;23;20007;-81
2022/09/20 04:10:16;;;;;;;5.63;0.50;;;11.50;99.90;;;;;;6151300;23;20005;-80
2022/09/20 04:12:59;;;;;;;2.92;0.50;;;11.50;99.90;;;;;;6115401;23;20045;-81
2022/09/20 04:16:07;;;;;;;4.63;0.50;;;11.50;99.90;;;;;;6156139;23;20001;-81
2022/09/20 04:19:20;;;;;;;4.38;0.50;;;11.50;99.90;;;;;;6140552;23;20009;-81
2022/09/20 04:22:01;;;;;;;4.80;0.40;;;11.40;99.90;;;;;;6116298;23;20008;-80
2022/09/20 04:24:41;;;;;;;4.25;0.50;;;11.30;99.90;;;;;;6138939;23;20478;-80
2022/09/20 04:27:24;;;;;;;3.33;0.40;;;11.20;99.90;;;;;;6139940;23;20005;-81
2022/09/20 04:30:27;;;;;;;3.80;0.40;;;11.10;99.90;;;;;;6148064;23;20015;-81
2022/09/20 04:34:01;;;;;;;2.90;0.35;;;11.00;99.90;;;;;;6118035;23;20013;-82
2022/09/20 04:37:19;;;;;;;2.67;0.20;;;11.00;99.90;;;;;;6142316;23;20005;-82
2022/09/20 04:40:46;;;;;;;9.95;0.90;;;10.90;99.90;;;;;;6148815;23;20005;-81
2022/09/20 04:43:31;;;;;;;3.10;0.55;;;10.90;99.90;;;;;;6071841;23;20001;-81
2022/09/20 04:46:25;;;;;;;3.47;0.77;;;10.80;99.90;;;;;;6150308;23;20436;-81
2022/09/20 04:49:22;;;;;;;2.42;0.65;;;10.80;99.90;;;;;;6151315;23;20009;-81
2022/09/20 04:51:50;;;;;;;1.90;0.38;;;10.90;99.90;;;;;;6139669;23;20036;-82
2022/09/20 04:54:55;;;;;;;4.53;0.60;;;10.90;99.90;;;;;;6140499;23;20012;-82
2022/09/20 04:57:53;;;;;;;2.33;0.80;;;11.00;99.90;;;;;;6138916;23;20016;-80
2022/09/20 05:00:34;;;;;;;3.38;0.85;;;11.10;99.90;;;;;;6113321;23;20057;-82
2022/09/20 05:03:51;;;;;;;3.00;0.60;;;11.20;99.90;;;;;;6117587;23;20014;-81
2022/09/20 05:06:55;;;;;;;2.65;0.55;;;11.30;99.90;;;;;;6117015;23;20005;-82
2022/09/20 05:09:42;;;;;;;4.47;0.60;;;11.30;99.90;;;;;;6174732;23;20001;-82
2022/09/20 05:13:14;;;;;;;3.88;0.63;;;11.40;99.90;;;;;;6140183;23;20009;-81
2022/09/20 05:16:16;;;;;;;4.60;0.50;;;11.40;99.90;;;;;;6141745;23;20009;-81
2022/09/20 05:19:10;;;;;;;2.45;0.50;;;11.40;99.90;;;;;;6141015;23;20005;-80
2022/09/20 05:22:02;;;;;;;3.13;0.60;;;11.50;99.90;;;;;;6113233;23;20011;-79
2022/09/20 05:24:59;;;;;;;4.10;0.60;;;11.50;99.90;;;;;;6139261;23;20035;-81
2022/09/20 05:27:53;;;;;;;1.33;0.30;;;11.50;99.90;;;;;;6114691;23;20012;-82
2022/09/20 05:30:48;;;;;;;7.00;0.50;;;11.50;99.90;;;;;;6130199;23;20009;-80
2022/09/20 05:33:53;;;;;;;4.25;0.57;;;11.50;99.90;;;;;;6132410;23;20041;-80
2022/09/20 05:37:08;;;;;;;;;;;;;;;;;;;;;
2022/09/20 05:40:17;;;;;;;3.72;0.60;;;11.50;99.90;;;;;;6153444;23;20016;-78
2022/09/20 05:43:16;;;;;;;3.22;0.43;;;11.50;99.90;;;;;;6127977;23;20005;-79
2022/09/20 05:46:13;;;;;;;4.18;0.50;;;11.50;99.90;;;;;;6125831;23;20028;-80
2022/09/20 05:48:56;;;;;;;5.05;0.50;;;11.50;99.90;;;;;;6126639;23;20009;-80
2022/09/20 05:51:52;;;;;;;4.63;0.57;;;11.50;99.90;;;;;;6126183;23;20016;-81
2022/09/20 05:55:27;;;;;;;2.90;0.40;;;11.40;99.90;;;;;;6125800;23;20009;-78
2022/09/20 05:58:31;;;;;;;2.75;0.43;;;11.30;99.90;;;;;;6112738;23;20005;-81
2022/09/20 06:01:25;;;;;;;4.38;0.50;;;11.20;99.90;;;;;;6143642;23;20028;-79
2022/09/20 06:04:24;;;;;;;3.10;0.68;;;11.10;99.90;;;;;;6149455;23;20013;-79
2022/09/20 06:07:15;;;;;;;3.90;0.55;;;11.00;99.90;;;;;;6173067;23;20008;-79
2022/09/20 06:09:54;;;;;;;2.80;0.73;;;10.90;99.90;;;;;;6122998;23;20005;-81
2022/09/20 06:13:02;;;;;;;2.45;0.60;;;10.90;99.90;;;;;;6115693;23;20015;-81
2022/09/20 06:15:58;;;;;;;4.60;0.70;;;10.90;99.90;;;;;;6142860;23;20031;-80
2022/09/20 06:18:46;;;;;;;1.73;0.60;;;10.90;99.90;;;;;;6139411;23;20009;-81
2022/09/20 06:21:25;;;;;;;4.53;0.50;;;11.00;99.90;;;;;;6137901;23;20005;-80
2022/09/20 06:23:59;;;;;;;2.30;0.40;;;11.00;99.90;;;;;;6137648;23;20013;-80
2022/09/20 06:26:35;;;;;;;1.65;0.40;;;11.00;99.90;;;;;;6147517;23;20035;-80
2022/09/20 06:29:10;;;;;;;4.57;1.20;;;11.10;99.90;;;;;;6139898;23;20009;-80
2022/09/20 06:31:43;;;;;;;2.05;0.40;;;11.10;99.90;;;;;;6117622;23;20017;-80
2022/09/20 06:34:14;;;;;;;4.10;0.50;;;11.30;99.90;;;;;;6116573;23;20009;-80
2022/09/20 06:43:30;;;;;;;4.57;0.60;;;11.90;99.90;;;;;;6141053;23;20027;-79
2022/09/20 06:46:02;;;;;;;2.95;0.50;;;12.10;99.90;;;;;;6142974;23;20100;-81
2022/09/20 06:48:32;;;;;;;4.88;0.47;;;12.20;99.90;;;;;;6115979;23;20005;-80
2022/09/20 06:51:12;;;;;;;3.90;0.55;;;12.20;99.90;;;;;;6117381;23;20005;-80
2022/09/20 06:53:50;;;;;;;3.97;0.55;;;12.40;99.90;;;;;;6118966;23;20001;-80
2022/09/20 06:56:25;;;;;;;3.40;0.50;;;12.50;99.90;;;;;;6147381;23;20016;-80
2022/09/20 06:58:55;;;;;;;4.90;0.60;;;12.50;99.90;;;;;;6158142;23;20001;-79
2022/09/20 07:01:24;;;;;;;3.95;0.70;;;12.60;99.90;;;;;;6122786;23;20337;-80
2022/09/20 07:03:53;;;;;;;5.75;0.77;;;12.60;99.90;;;;;;6124849;23;20010;-80
2022/09/20 07:06:30;;;;;;;3.65;0.80;;;12.70;99.90;;;;;;6127860;23;20005;-80
2022/09/20 07:09:08;;;;;;;5.45;0.80;;;12.70;99.90;;;;;;6150916;23;20005;-80
2022/09/20 07:11:49;;;;;;;4.90;0.93;;;12.80;99.90;;;;;;6156316;23;20003;-80
2022/09/20 07:14:49;;;;;;;;;;;;;;;;;;;;;
2022/09/20 07:17:26;;;;;;;6.28;1.10;;;12.50;99.90;;;;;;6164342;23;20005;-80
2022/09/20 07:20:53;;;;;;;3.17;0.75;;;12.20;99.90;;;;;;6039251;23;20055;-81
2022/09/20 07:27:25;;;;;;;4.70;0.93;;;11.90;99.90;;;;;;6150667;23;20020;-82
2022/09/20 08:21:41;;;;;;;3.17;0.63;;;12.90;99.90;;;;;;6199975;22;20017;-81
2022/09/20 08:24:35;;;;;;;3.20;0.50;;;13.10;99.90;;;;;;6167927;23;20011;-81
2022/09/20 08:27:08;;;;;;;3.63;0.45;;;13.30;99.90;;;;;;6165712;23;20436;-81
2022/09/20 08:29:40;;;;;;;2.13;0.40;;;13.50;99.90;;;;;;6165562;23;20009;-81
2022/09/20 08:32:15;;;;;;;3.88;0.85;;;13.70;99.90;;;;;;6159489;23;20452;-81
2022/09/20 08:34:50;;;;;;;2.85;0.40;;;13.90;99.90;;;;;;6160624;23;20034;-81
2022/09/20 08:38:26;;;;;;;;;;;;;;;;;;;;;
2022/09/20 09:53:09;;;;;;;;;;;;;;;;;;;;;
2022/09/20 09:56:24;;;;;;;1.42;0.20;;;16.90;99.90;;;;;;6214302;23;20004;-81
2022/09/20 10:12:01;;;;;;;4.90;0.50;;;17.20;99.90;;;;;;6150293;23;20451;-81
2022/09/20 10:15:22;;;;;;;;;;;;;;;;;;;;;
2022/09/20 10:22:35;;;;;;;2.30;0.30;;;18.70;99.90;;;;;;6187056;23;20019;-81
2022/09/20 10:39:54;;;;;;;2.45;0.40;;;19.60;99.90;;;;;;6218135;22;20032;-80
2022/09/20 10:43:27;;;;;;;4.10;0.30;;;19.80;99.90;;;;;;6200662;23;20008;-80
2022/09/20 10:47:18;;;;;;;4.32;0.40;;;20.00;99.90;;;;;;6189767;23;20012;-80
2022/09/20 10:50:28;;;;;;;;;;;20.10;99.90;;;;;;6166838;23;20001;-81
2022/09/20 10:53:27;;;;;;;2.67;0.38;;;20.10;99.90;;;;;;6191471;23;19907;-81
2022/09/20 10:56:36;;;;;;;2.55;0.28;;;20.00;99.90;;;;;;6199189;23;20000;-80
2022/09/20 11:00:35;;;;;;;3.90;0.30;;;19.90;99.60;;;;;;6162504;23;20008;-80
2022/09/20 11:04:12;;;;;;;3.20;0.40;;;19.80;99.30;;;;;;6124919;23;20016;-81
2022/09/20 11:07:30;;;;;;;2.50;0.40;;;19.60;98.60;;;;;;6194268;23;19997;-80
2022/09/20 11:10:35;;;;;;;4.70;0.63;;;19.50;98.40;;;;;;6166614;23;20032;-81
2022/09/20 11:14:01;;;;;;;6.47;0.93;;;19.40;98.50;;;;;;6179175;23;20015;-80
2022/09/20 11:17:36;;;;;;;3.25;0.30;;;19.40;98.10;;;;;;6209596;22;20020;-79
2022/09/20 11:20:59;;;;;;;2.80;0.50;;;19.30;98.00;;;;;;6131435;23;20027;-79
2022/09/20 11:24:08;;;;;;;3.17;0.37;;;19.50;97.80;;;;;;6110986;23;20008;-81
2022/09/20 11:28:20;;;;;;;;;;;;;;;;;;;;;
2022/09/20 17:36:01;;;;;;;1.17;0.20;;;13.40;99.90;;;;;;6218977;22;20332;-80
2022/09/20 17:39:33;;;;;;;2.28;0.50;;;13.30;99.90;;;;;;6170995;23;20013;-78
2022/09/20 17:52:40;;;;;;;;;;;;;;;;;;;;;
2022/09/20 17:55:39;;;;;;;1.48;0.25;;;12.80;99.90;;;;;;6167352;23;20025;-81
2022/09/20 17:58:14;;;;;;;1.13;0.20;;;12.70;99.90;;;;;;6135954;23;19997;-81
2022/09/20 18:00:41;;;;;;;2.35;0.20;;;12.70;99.90;;;;;;6133550;23;20345;-79
2022/09/20 18:03:10;;;;;;;1.08;0.20;;;12.60;99.90;;;;;;6159441;23;20001;-80
2022/09/20 18:05:44;;;;;;;0.80;0.20;;;12.60;99.90;;;;;;6136867;23;20001;-79
2022/09/20 18:08:11;;;;;;;3.10;0.50;;;12.50;99.90;;;;;;6136633;23;20340;-81
2022/09/20 18:10:37;;;;;;;2.03;0.50;;;12.40;99.90;;;;;;6164747;23;20586;-81
2022/09/20 18:13:11;;;;;;;2.53;0.40;;;12.40;99.90;;;;;;6113622;23;20013;-80
2022/09/20 18:15:49;;;;;;;2.17;0.50;;;12.30;99.90;;;;;;6161491;23;20012;-81
2022/09/20 18:18:18;;;;;;;1.58;0.40;;;12.20;99.90;;;;;;6134857;23;20462;-80
2022/09/20 18:20:48;;;;;;;5.43;0.80;;;12.20;99.90;;;;;;6129636;23;20012;-81
2022/09/20 18:23:39;;;;;;;2.85;1.00;;;12.10;99.90;;;;;;6140186;23;20040;-79
2022/09/20 18:26:22;;;;;;;3.60;2.38;;;12.10;99.90;;;;;;6175156;23;20012;-82
2022/09/20 18:29:22;;;;;;;5.25;2.40;;;12.10;99.90;;;;;;6140383;23;20027;-84
2022/09/20 18:32:03;;;;;;;4.22;1.67;;;12.00;99.90;;;;;;6142288;23;20038;-82
2022/09/20 18:34:35;;;;;;;3.88;0.70;;;12.00;99.90;;;;;;6139836;23;20009;-82
2022/09/20 18:37:53;;;;;;;1.95;0.50;;;11.90;99.90;;;;;;6141576;23;20001;-83
2022/09/20 18:44:03;;;;;;;2.58;0.40;;;11.80;99.90;;;;;;6134678;23;20260;-82
2022/09/20 18:46:40;;;;;;;0.68;0.30;;;11.70;99.90;;;;;;6138718;23;20013;-81
2022/09/20 18:49:15;;;;;;;9.52;3.17;;;11.70;99.90;;;;;;6140005;23;20024;-82
2022/09/20 18:51:53;;;;;;;5.22;1.30;;;11.70;99.90;;;;;;6141720;23;20092;-83
2022/09/20 18:54:35;;;;;;;2.95;0.80;;;11.60;99.90;;;;;;6161428;23;20005;-81
2022/09/20 18:57:08;;;;;;;2.22;0.60;;;11.60;99.90;;;;;;6139480;23;20005;-81
2022/09/20 18:59:39;;;;;;;2.17;0.40;;;11.60;99.90;;;;;;6139291;23;20314;-81
2022/09/20 19:02:22;;;;;;;2.40;0.40;;;11.50;99.90;;;;;;6138427;23;20449;-80
2022/09/20 19:04:54;;;;;;;2.70;0.40;;;11.50;99.90;;;;;;6137288;23;20005;-81
2022/09/20 19:07:35;;;;;;;2.75;0.50;;;11.50;99.90;;;;;;6139484;23;20009;-80
2022/09/20 19:10:05;;;;;;;1.35;0.30;;;11.40;99.90;;;;;;6138529;23;20009;-81
2022/09/20 19:13:08;;;;;;;;;;;;;;;;;;;;;
2022/09/20 19:16:15;;;;;;;1.13;0.28;;;11.30;99.90;;;;;;6138623;23;20016;-83
2022/09/20 19:19:26;;;;;;;0.88;0.20;;;11.30;99.90;;;;;;6140172;23;20012;-82
2022/09/20 19:23:03;;;;;;;2.03;0.30;;;11.20;99.90;;;;;;6141265;23;20013;-81
2022/09/20 19:25:44;;;;;;;1.05;0.20;;;11.20;99.90;;;;;;6112645;23;20001;-81
2022/09/20 19:28:14;;;;;;;2.95;0.38;;;11.10;99.90;;;;;;6137452;23;20005;-82
2022/09/20 19:30:58;;;;;;;1.60;0.30;;;11.10;99.90;;;;;;6135183;23;20005;-80
2022/09/20 19:33:49;;;;;;;4.20;0.30;;;11.10;99.90;;;;;;6138057;23;20009;-82
2022/09/20 19:36:38;;;;;;;1.10;0.20;;;11.00;99.90;;;;;;6136234;23;20005;-80
2022/09/20 19:39:28;;;;;;;1.85;0.20;;;11.00;99.90;;;;;;6200061;23;20464;-81
2022/09/20 19:42:42;;;;;;;3.03;0.30;;;10.90;99.90;;;;;;6139461;23;20016;-82
2022/09/20 19:45:40;;;;;;;3.72;1.13;;;10.90;99.90;;;;;;6139604;23;20005;-81
2022/09/20 19:48:55;;;;;;;10.13;5.97;;;10.90;99.90;;;;;;6144460;23;20441;-80
2022/09/20 19:51:30;;;;;;;9.45;5.22;;;10.80;99.90;;;;;;6137385;23;20035;-79
2022/09/20 19:54:03;;;;;;;31.05;18.70;;;10.80;99.90;;;;;;6137899;23;20008;-82
2022/09/20 19:57:06;;;;;;;15.25;9.90;;;10.80;99.90;;;;;;6114266;23;20008;-80
2022/09/20 20:00:12;;;;;;;;;;;;;;;;;;;;;
2022/09/20 20:02:47;;;;;;;9.60;5.72;;;10.70;99.90;;;;;;6137509;23;20559;-82
2022/09/20 20:05:36;;;;;;;10.90;6.63;;;10.70;99.90;;;;;;6137519;23;20009;-82
2022/09/20 20:08:16;;;;;;;7.70;4.68;;;10.70;99.90;;;;;;6135588;23;20029;-81
2022/09/20 20:11:00;;;;;;;5.72;2.78;;;10.70;99.90;;;;;;6145032;23;20009;-81
2022/09/20 20:14:02;;;;;;;8.02;2.08;;;10.70;99.90;;;;;;6136315;23;20005;-81
2022/09/20 20:17:02;;;;;;;5.00;1.67;;;10.70;99.90;;;;;;6109855;23;20016;-80
2022/09/20 20:20:32;;;;;;;4.90;2.33;;;10.60;99.90;;;;;;6133120;23;20001;-80
2022/09/20 20:23:50;;;;;;;1.50;0.60;;;10.60;99.90;;;;;;6133735;23;20005;-79
2022/09/20 20:26:25;;;;;;;1.42;0.35;;;10.60;99.90;;;;;;6040528;23;20003;-78
2022/09/20 20:28:55;;;;;;;1.23;0.40;;;10.60;99.90;;;;;;6073905;23;20007;-79
2022/09/20 20:31:21;;;;;;;1.92;0.30;;;10.60;99.90;;;;;;6106285;23;20005;-81
2022/09/20 20:34:23;;;;;;;2.45;0.25;;;10.60;99.90;;;;;;6161550;23;20484;-82
2022/09/20 20:37:18;;;;;;;5.60;0.38;;;10.60;99.90;;;;;;6157763;23;20008;-82
2022/09/20 20:39:56;;;;;;;1.25;0.30;;;10.60;99.90;;;;;;6136049;23;20023;-82
2022/09/20 20:42:37;;;;;;;1.30;0.30;;;10.60;99.90;;;;;;6189558;23;20005;-82
2022/09/20 20:45:20;;;;;;;1.17;0.30;;;10.60;99.90;;;;;;6155412;23;20015;-80
2022/09/20 20:48:24;;;;;;;1.25;0.38;;;10.60;99.90;;;;;;6156484;23;20013;-83
2022/09/20 20:51:31;;;;;;;1.30;0.30;;;10.60;99.90;;;;;;6059055;23;20047;-81
2022/09/20 20:54:36;;;;;;;1.90;0.40;;;10.60;99.90;;;;;;6145372;23;20013;-83
2022/09/20 20:57:24;;;;;;;0.88;0.30;;;10.70;99.90;;;;;;6159965;23;20009;-82
2022/09/20 20:59:55;;;;;;;1.02;0.20;;;10.70;99.90;;;;;;6167769;23;20005;-84
2022/09/20 21:02:32;;;;;;;1.13;0.20;;;10.70;99.90;;;;;;6137287;23;20361;-84
2022/09/20 21:05:14;;;;;;;3.58;0.52;;;10.70;99.90;;;;;;6142517;23;20012;-82
2022/09/20 21:08:12;;;;;;;2.13;0.43;;;10.80;99.90;;;;;;6152915;23;20005;-82
2022/09/20 21:10:52;;;;;;;4.00;0.75;;;10.80;99.90;;;;;;6157419;23;20017;-82
2022/09/20 21:17:30;;;;;;;2.17;0.30;;;10.80;99.90;;;;;;6167659;23;20013;-82
2022/09/20 21:20:21;;;;;;;1.83;0.45;;;10.90;99.90;;;;;;6177019;23;20001;-82
2022/09/20 21:23:46;;;;;;;3.05;0.73;;;11.00;99.90;;;;;;6165721;23;20017;-82
2022/09/20 21:26:55;;;;;;;;;;;;;;;;;;;;;
2022/09/20 21:30:47;;;;;;;1.65;0.20;;;11.00;99.90;;;;;;6175951;23;20043;-83
2022/09/20 21:41:41;;;;;;;2.08;0.50;;;11.10;99.90;;;;;;5942898;23;20015;-80
2022/09/20 21:48:06;;;;;;;3.38;0.47;;;11.20;99.90;;;;;;6138382;23;20024;-82
2022/09/20 21:51:07;;;;;;;4.13;1.25;;;11.20;99.90;;;;;;6145138;23;20005;-82
2022/09/20 21:53:40;;;;;;;3.53;1.40;;;11.30;99.90;;;;;;6139927;23;20012;-82
2022/09/20 21:56:19;;;;;;;5.45;1.13;;;11.30;99.90;;;;;;6116263;23;20011;-81
2022/09/20 21:59:01;;;;;;;3.03;0.70;;;11.30;99.90;;;;;;6202278;23;20007;-82
2022/09/20 22:01:36;;;;;;;5.22;0.40;;;11.30;99.90;;;;;;6141186;23;20005;-82
2022/09/20 22:04:08;;;;;;;3.55;0.30;;;11.30;99.90;;;;;;6140139;23;20005;-81
2022/09/20 22:06:40;;;;;;;2.60;0.40;;;11.30;99.90;;;;;;6174814;23;20001;-81
2022/09/20 22:09:13;;;;;;;2.20;0.35;;;11.30;99.90;;;;;;6140852;23;20006;-81
2022/09/20 22:11:46;;;;;;;1.13;0.20;;;11.30;99.90;;;;;;6165018;23;20017;-81
2022/09/20 22:14:15;;;;;;;1.90;0.30;;;11.30;99.90;;;;;;6170131;23;20059;-81
2022/09/20 22:16:43;;;;;;;2.03;0.30;;;11.30;99.90;;;;;;6163468;23;20318;-80
2022/09/20 22:19:17;;;;;;;2.03;0.20;;;11.30;99.90;;;;;;6138303;23;20001;-81
2022/09/20 22:21:50;;;;;;;2.88;0.40;;;11.30;99.90;;;;;;6165124;23;20002;-82
2022/09/20 22:24:19;;;;;;;2.33;0.20;;;11.40;99.90;;;;;;6189952;23;20005;-80
2022/09/20 22:26:48;;;;;;;3.50;0.30;;;11.40;99.90;;;;;;6116489;23;20012;-82
2022/09/20 22:29:20;;;;;;;2.78;0.38;;;11.40;99.90;;;;;;6174613;23;20294;-82
2022/09/20 22:31:50;;;;;;;3.63;0.40;;;11.40;99.90;;;;;;6116553;23;20344;-81
2022/09/20 22:34:25;;;;;;;;;;;11.50;99.90;;;;;;6140306;23;20017;-81
2022/09/20 22:36:57;;;;;;;1.67;0.30;;;11.50;99.90;;;;;;6141054;23;19904;-80
2022/09/20 22:39:41;;;;;;;1.55;0.20;;;11.40;99.90;;;;;;6163518;23;20005;-81
2022/09/20 22:42:16;;;;;;;2.03;0.65;;;11.40;99.90;;;;;;6164463;23;20001;-82
2022/09/20 22:44:43;;;;;;;1.98;0.20;;;11.50;99.90;;;;;;6139135;23;20496;-80
2022/09/20 22:47:10;;;;;;;1.33;0.25;;;11.40;99.90;;;;;;6162655;23;20020;-81
2022/09/20 22:49:37;;;;;;;0.93;0.20;;;11.40;99.90;;;;;;6110597;23;20009;-80
2022/09/20 22:52:03;;;;;;;2.65;0.30;;;11.40;99.90;;;;;;6159861;23;20016;-80
2022/09/20 22:54:30;;;;;;;2.80;0.30;;;11.40;99.90;;;;;;6161303;23;20336;-80
2022/09/20 22:56:56;;;;;;;1.40;0.30;;;11.40;99.90;;;;;;6187082;23;20623;-80
2022/09/20 22:59:23;;;;;;;3.33;0.30;;;11.40;99.90;;;;;;6136314;23;20351;-80
2022/09/20 23:01:49;;;;;;;1.45;0.20;;;11.30;99.90;;;;;;6163185;23;20005;-80
2022/09/20 23:04:22;;;;;;;2.03;0.30;;;11.30;99.90;;;;;;6136767;23;20016;-81
2022/09/20 23:06:53;;;;;;;1.52;0.30;;;11.30;99.90;;;;;;6165651;23;20015;-83
2022/09/20 23:09:25;;;;;;;1.50;0.30;;;11.20;99.90;;;;;;6140699;23;20015;-81
2022/09/20 23:11:55;;;;;;;1.77;0.45;;;11.20;99.90;;;;;;6190185;23;20380;-80
2022/09/20 23:14:22;;;;;;;4.00;0.30;;;11.10;99.90;;;;;;6114467;23;20019;-80
2022/09/20 23:16:49;;;;;;;3.30;0.30;;;11.00;99.90;;;;;;6164649;23;20009;-79
2022/09/20 23:19:16;;;;;;;3.20;0.40;;;11.00;99.90;;;;;;6145329;23;20225;-79
2022/09/20 23:21:45;;;;;;;2.03;0.20;;;11.00;99.90;;;;;;6166461;23;20009;-81
2022/09/20 23:24:17;;;;;;;0.80;0.30;;;11.00;99.90;;;;;;6139756;23;20001;-81
2022/09/20 23:26:46;;;;;;;2.37;0.20;;;10.90;99.90;;;;;;6200590;23;20001;-81
2022/09/20 23:29:16;;;;;;;1.08;0.20;;;10.90;99.90;;;;;;6163890;23;20005;-82
2022/09/20 23:31:48;;;;;;;2.13;0.50;;;10.90;99.90;;;;;;6199228;23;20027;-80
2022/09/20 23:34:36;;;;;;;2.17;0.38;;;10.90;99.90;;;;;;6169076;23;20021;-84
2022/09/20 23:37:30;;;;;;;2.20;0.30;;;10.80;99.90;;;;;;6174047;23;20336;-82
2022/09/20 23:40:15;;;;;;;0.75;0.20;;;10.80;99.90;;;;;;6150279;23;20009;-83
2022/09/20 23:43:13;;;;;;;1.25;0.30;;;10.80;99.90;;;;;;6132746;23;20009;-84
2022/09/20 23:45:49;;;;;;;2.42;0.30;;;10.80;99.90;;;;;;6147916;23;20009;-83
2022/09/20 23:48:28;;;;;;;4.70;0.38;;;10.80;99.90;;;;;;6185253;23;20035;-82
2022/09/20 23:51:12;;;;;;;1.30;0.20;;;10.80;99.90;;;;;;6188396;23;20011;-81
2022/09/20 23:53:54;;;;;;;2.10;0.20;;;10.80;99.90;;;;;;6156065;23;20009;-83
2022/09/20 23:56:39;;;;;;;3.60;0.28;;;10.70;99.90;;;;;;6212435;23;20005;-82
2022/09/20 23:59:23;;;;;;;2.20;0.30;;;10.70;99.90;;;;;;6150105;23;20021;-83
